Terminal Aerodrome Forecast
Issued by NWS Charleston, WV

Current Version | Previous Version | Text Only | Print | Product List | Glossary Off
Versions: 1 2 3 4 5 6 7 8 9 10 11 12 13 14 15 16 17 18 19 20 21 22 23 24 25 26 27 28

000
FTUS41 KRLX 211200 AAA
TAFBKW
TAF AMD
KBKW 211249Z 2113/2212 23004KT P6SM OVC012
     FM211700 29008KT P6SM OVC025
     FM212000 30009KT P6SM OVC035
     FM220000 31008KT P6SM OVC025
     FM220100 31007KT P6SM OVC025
     FM220600 31007KT P6SM OVC025
     FM221000 31006KT P6SM OVC020=

USA.gov is the U.S. government's official web portal to all federal, state and local government web resources and services.